Time;durP1;ratioP1;P1;durP2;ratioP2;P2;SDS_P1;SDS_P2;PMS_P1;PMS_P2;Temp;Humidity;BMP_temperature;BMP_pressure;BME280_temperature;BME280_humidity;BME280_pressure;Samples;Min_cycle;Max_cycle;Signal;HPM_P1;HPM_P2
2022/11/24 00:02:06;;;;;;;12.35;2.45;;;9.80;99.90;;;;;;5089021;28;20036;-73
2022/11/24 00:04:31;;;;;;;9.57;1.67;;;9.80;99.90;;;;;;5087752;28;20020;-71
2022/11/24 00:06:57;;;;;;;13.63;2.13;;;9.80;99.90;;;;;;5070813;28;20452;-72
2022/11/24 00:09:22;;;;;;;12.05;1.95;;;9.80;99.90;;;;;;5076120;28;20033;-73
2022/11/24 00:11:48;;;;;;;8.93;1.27;;;9.80;99.90;;;;;;5078182;28;20081;-72
2022/11/24 00:14:13;;;;;;;8.32;1.30;;;9.90;99.90;;;;;;5079242;28;20920;-71
2022/11/24 00:16:39;;;;;;;10.05;1.30;;;9.80;99.90;;;;;;5068367;28;20039;-72
2022/11/24 00:19:08;;;;;;;11.75;1.27;;;9.80;99.90;;;;;;5085874;28;20115;-72
2022/11/24 00:21:34;;;;;;;8.35;1.20;;;9.70;99.90;;;;;;5078419;28;20773;-73
2022/11/24 00:24:00;;;;;;;6.72;1.60;;;9.70;99.90;;;;;;5072800;28;20114;-74
2022/11/24 00:26:28;;;;;;;8.50;1.63;;;9.70;99.90;;;;;;5086417;28;20502;-73
2022/11/24 00:28:56;;;;;;;9.35;1.13;;;9.70;99.90;;;;;;5088826;28;20028;-72
2022/11/24 00:31:27;;;;;;;7.07;1.20;;;9.60;99.90;;;;;;5087551;28;20115;-73
2022/11/24 00:33:58;;;;;;;8.60;1.33;;;9.60;99.90;;;;;;5081631;28;20487;-73
2022/11/24 00:36:28;;;;;;;11.48;1.50;;;9.50;99.90;;;;;;5074737;28;20020;-73
2022/11/24 00:38:55;;;;;;;9.00;1.30;;;9.40;99.90;;;;;;5079512;28;20032;-72
2022/11/24 00:41:22;;;;;;;9.85;1.52;;;9.50;99.90;;;;;;5066530;28;20072;-70
2022/11/24 00:43:47;;;;;;;10.70;1.90;;;9.50;99.90;;;;;;5080084;28;20482;-72
2022/11/24 00:46:13;;;;;;;7.38;1.35;;;9.60;99.90;;;;;;5071192;28;20039;-72
2022/11/24 00:48:39;;;;;;;7.68;1.17;;;9.60;99.90;;;;;;5079296;28;20038;-72
2022/11/24 00:51:10;;;;;;;7.55;1.35;;;9.60;99.90;;;;;;5088640;28;20040;-72
2022/11/24 00:53:36;;;;;;;12.15;1.55;;;9.70;99.90;;;;;;5087914;28;20115;-73
2022/11/24 00:56:02;;;;;;;13.73;1.60;;;9.70;99.90;;;;;;5079236;28;20028;-73
2022/11/24 00:58:29;;;;;;;9.15;1.48;;;9.60;99.90;;;;;;5076758;28;20032;-72
2022/11/24 01:00:55;;;;;;;10.98;1.38;;;9.60;99.90;;;;;;5069402;28;20082;-72
2022/11/24 01:03:21;;;;;;;9.90;1.17;;;9.60;99.90;;;;;;5081713;28;20028;-71
2022/11/24 01:05:47;;;;;;;9.60;1.40;;;9.50;99.90;;;;;;5084955;28;20475;-72
2022/11/24 01:08:12;;;;;;;9.10;1.73;;;9.50;99.90;;;;;;5078673;28;20078;-72
2022/11/24 01:10:38;;;;;;;8.23;1.25;;;9.50;99.90;;;;;;5078070;28;20060;-73
2022/11/24 01:13:04;;;;;;;7.97;1.35;;;9.50;99.90;;;;;;5077317;28;20070;-73
2022/11/24 01:15:30;;;;;;;7.35;1.52;;;9.40;99.90;;;;;;5083840;28;20032;-71
2022/11/24 01:17:56;;;;;;;9.88;1.90;;;9.40;99.90;;;;;;5079508;28;20032;-72
2022/11/24 01:20:22;;;;;;;8.82;1.45;;;9.40;99.90;;;;;;5086673;28;20035;-71
2022/11/24 01:22:48;;;;;;;9.07;1.30;;;9.30;99.90;;;;;;5079316;28;20116;-72
2022/11/24 01:25:15;;;;;;;9.13;1.30;;;9.30;99.90;;;;;;5081822;28;20032;-73
2022/11/24 01:27:40;;;;;;;10.35;1.23;;;9.30;99.90;;;;;;5075882;28;20024;-73
2022/11/24 01:30:07;;;;;;;8.00;1.60;;;9.30;99.90;;;;;;5067143;28;20040;-72
2022/11/24 01:32:34;;;;;;;9.32;1.10;;;9.30;99.90;;;;;;5071453;28;20024;-72
2022/11/24 01:35:01;;;;;;;6.68;0.98;;;9.20;99.90;;;;;;5085932;28;20119;-73
2022/11/24 01:37:27;;;;;;;9.30;1.67;;;9.20;99.90;;;;;;5086219;28;20024;-73
2022/11/24 01:39:52;;;;;;;9.88;1.65;;;9.20;99.90;;;;;;5078625;28;20045;-73
2022/11/24 01:42:18;;;;;;;10.43;1.50;;;9.10;99.90;;;;;;5076652;28;20036;-71
2022/11/24 01:44:44;;;;;;;8.10;1.20;;;9.10;99.90;;;;;;5078294;28;20032;-72
2022/11/24 01:47:34;;;;;;;8.45;1.25;;;9.10;99.90;;;;;;5081542;28;20399;-73
2022/11/24 01:50:02;;;;;;;9.68;1.08;;;9.10;99.90;;;;;;5085588;28;20035;-73
2022/11/24 01:52:41;;;;;;;9.00;1.35;;;9.00;99.90;;;;;;5084579;28;20043;-74
2022/11/24 01:55:11;;;;;;;10.88;1.33;;;9.00;99.90;;;;;;5082265;28;20041;-72
2022/11/24 01:58:06;;;;;;;8.70;1.10;;;9.10;99.90;;;;;;5082110;28;20028;-72
2022/11/24 02:00:35;;;;;;;9.70;1.23;;;9.10;99.90;;;;;;5073468;28;20064;-72
2022/11/24 02:03:00;;;;;;;10.52;1.38;;;9.10;99.90;;;;;;5068681;28;20031;-71
2022/11/24 02:05:26;;;;;;;12.80;2.58;;;9.00;99.90;;;;;;5084306;28;20032;-73
2022/11/24 02:07:54;;;;;;;10.98;1.77;;;9.00;99.90;;;;;;5083441;28;20035;-73
2022/11/24 02:10:20;;;;;;;12.15;1.73;;;9.00;99.90;;;;;;5085011;28;20046;-72
2022/11/24 02:12:49;;;;;;;10.70;1.55;;;9.00;99.90;;;;;;5079473;28;20037;-73
2022/11/24 02:15:16;;;;;;;12.63;2.20;;;9.00;99.90;;;;;;5069441;28;20040;-72
2022/11/24 02:17:42;;;;;;;8.95;1.50;;;9.10;99.90;;;;;;5086821;28;20036;-72
2022/11/24 02:20:10;;;;;;;13.52;1.80;;;9.10;99.90;;;;;;5086348;28;20386;-72
2022/11/24 02:23:13;;;;;;;11.48;2.35;;;9.10;99.90;;;;;;5085612;28;20553;-71
2022/11/24 02:25:53;;;;;;;8.30;1.60;;;9.10;99.90;;;;;;5085684;28;20028;-73
2022/11/24 02:28:21;;;;;;;10.68;1.98;;;9.10;99.90;;;;;;5082314;28;20021;-72
2022/11/24 02:30:48;;;;;;;16.10;2.35;;;9.10;99.90;;;;;;5065286;28;20043;-72
2022/11/24 02:33:14;;;;;;;8.57;1.65;;;9.00;99.90;;;;;;5081179;28;20035;-72
2022/11/24 02:35:40;;;;;;;10.30;2.33;;;9.00;99.90;;;;;;5085095;28;20039;-72
2022/11/24 02:38:09;;;;;;;15.18;2.17;;;9.00;99.90;;;;;;5079794;28;20032;-72
2022/11/24 02:40:35;;;;;;;10.77;1.58;;;9.00;99.90;;;;;;5079833;28;20067;-72
2022/11/24 02:43:09;;;;;;;12.40;2.03;;;9.00;99.90;;;;;;5079574;28;20509;-73
2022/11/24 02:45:35;;;;;;;11.50;1.60;;;9.00;99.90;;;;;;5080031;28;20036;-72
2022/11/24 02:48:00;;;;;;;14.27;2.15;;;8.90;99.90;;;;;;5077690;28;20039;-72
2022/11/24 02:50:26;;;;;;;11.35;2.53;;;8.90;99.90;;;;;;5071362;28;20144;-72
2022/11/24 02:52:52;;;;;;;13.00;2.05;;;8.90;99.90;;;;;;5066346;28;20070;-71
2022/11/24 02:55:17;;;;;;;15.75;1.95;;;8.90;99.90;;;;;;5072558;28;20429;-72
2022/11/24 02:57:43;;;;;;;13.60;1.83;;;8.90;99.90;;;;;;5079658;28;20122;-73
2022/11/24 03:00:09;;;;;;;19.90;2.67;;;8.90;99.90;;;;;;5068651;28;20116;-72
2022/11/24 03:02:35;;;;;;;15.73;2.58;;;8.90;99.90;;;;;;5071338;28;20483;-72
2022/11/24 03:05:00;;;;;;;14.18;1.88;;;8.90;99.90;;;;;;5082245;28;20036;-72
2022/11/24 03:07:26;;;;;;;13.77;2.22;;;8.90;99.90;;;;;;5090088;28;20086;-72
2022/11/24 03:09:52;;;;;;;15.18;2.80;;;8.90;99.90;;;;;;5070591;28;20509;-72
2022/11/24 03:12:17;;;;;;;13.68;1.83;;;8.90;99.90;;;;;;5071873;28;20028;-72
2022/11/24 03:14:43;;;;;;;16.63;2.05;;;8.90;99.90;;;;;;5085046;28;20028;-72
2022/11/24 03:17:08;;;;;;;14.80;1.85;;;8.90;99.90;;;;;;5089565;28;20114;-72
2022/11/24 03:19:34;;;;;;;20.67;2.85;;;8.90;99.90;;;;;;5076378;28;20033;-72
2022/11/24 03:21:59;;;;;;;14.52;2.03;;;9.00;99.90;;;;;;5087479;28;20543;-72
2022/11/24 03:24:25;;;;;;;15.80;1.90;;;9.20;99.90;;;;;;5087616;28;20039;-72
2022/11/24 03:26:51;;;;;;;19.77;2.70;;;9.30;99.90;;;;;;5085448;28;20028;-74
2022/11/24 03:29:16;;;;;;;19.80;2.97;;;9.20;99.90;;;;;;5088881;28;20028;-72
2022/11/24 03:31:42;;;;;;;18.17;2.28;;;9.20;99.90;;;;;;5083905;28;20024;-73
2022/11/24 03:34:08;;;;;;;17.27;2.28;;;9.20;99.90;;;;;;5071889;28;20081;-71
2022/11/24 03:36:33;;;;;;;15.32;2.42;;;9.20;99.90;;;;;;5084098;28;20028;-73
2022/11/24 03:38:59;;;;;;;13.52;2.17;;;9.20;99.90;;;;;;5078847;28;20628;-72
2022/11/24 03:41:24;;;;;;;17.45;2.75;;;9.30;99.90;;;;;;5070342;28;20075;-72
2022/11/24 03:43:50;;;;;;;14.68;2.25;;;9.30;99.90;;;;;;5079645;28;20032;-72
2022/11/24 03:46:16;;;;;;;18.20;2.50;;;9.40;99.90;;;;;;5089251;28;20039;-72
2022/11/24 03:48:41;;;;;;;20.42;2.85;;;9.30;99.90;;;;;;5077118;28;20029;-72
2022/11/24 03:51:08;;;;;;;17.70;2.47;;;9.30;99.90;;;;;;5076962;28;20039;-73
2022/11/24 03:53:34;;;;;;;17.25;2.80;;;9.30;99.90;;;;;;5088217;28;20032;-72
2022/11/24 03:56:00;;;;;;;18.55;3.13;;;9.20;99.90;;;;;;5083414;28;20032;-71
2022/11/24 03:58:27;;;;;;;17.27;2.45;;;9.30;99.90;;;;;;5069748;28;20483;-72
2022/11/24 04:00:53;;;;;;;17.92;2.38;;;9.30;99.90;;;;;;5076824;28;20034;-72
2022/11/24 04:03:19;;;;;;;14.30;2.53;;;9.30;99.90;;;;;;5076672;28;20111;-72
2022/11/24 04:05:45;;;;;;;22.25;3.35;;;9.20;99.90;;;;;;5097273;28;20028;-72
2022/11/24 04:08:11;;;;;;;13.68;2.22;;;9.20;99.90;;;;;;5083423;28;20493;-72
2022/11/24 04:10:38;;;;;;;13.38;2.35;;;9.20;99.90;;;;;;5088758;28;20441;-72
2022/11/24 04:13:13;;;;;;;20.23;3.08;;;9.20;99.90;;;;;;5087485;28;20028;-72
2022/11/24 04:15:39;;;;;;;19.75;2.85;;;9.20;99.90;;;;;;5088305;28;20039;-72
2022/11/24 04:18:06;;;;;;;19.25;2.88;;;9.20;99.90;;;;;;5087321;28;20035;-72
2022/11/24 04:20:32;;;;;;;18.63;2.58;;;9.20;99.90;;;;;;5089003;28;20030;-71
2022/11/24 04:22:57;;;;;;;16.40;2.85;;;9.20;99.90;;;;;;5085169;28;20032;-72
2022/11/24 04:25:23;;;;;;;21.50;2.90;;;9.10;99.90;;;;;;5082746;28;20028;-72
2022/11/24 04:27:53;;;;;;;17.50;3.03;;;9.10;99.90;;;;;;5079794;28;20036;-72
2022/11/24 04:30:20;;;;;;;19.13;3.10;;;9.00;99.90;;;;;;5070526;28;20028;-72
2022/11/24 04:32:46;;;;;;;21.95;3.28;;;8.90;99.90;;;;;;5083744;28;20032;-71
2022/11/24 04:35:13;;;;;;;16.58;3.05;;;8.90;99.90;;;;;;5088045;28;20024;-72
2022/11/24 04:37:38;;;;;;;18.13;2.70;;;8.90;99.90;;;;;;5086401;28;20642;-72
2022/11/24 04:40:06;;;;;;;22.48;3.20;;;8.80;99.90;;;;;;5087696;28;20050;-72
2022/11/24 04:42:31;;;;;;;22.45;3.47;;;8.80;99.90;;;;;;5097329;28;20024;-71
2022/11/24 04:44:57;;;;;;;20.08;3.50;;;8.80;99.90;;;;;;5074394;28;20441;-71
2022/11/24 04:47:24;;;;;;;23.85;3.25;;;8.80;99.90;;;;;;5073098;28;20032;-71
2022/11/24 04:49:50;;;;;;;20.98;3.38;;;8.70;99.90;;;;;;5088175;28;20028;-73
2022/11/24 04:52:18;;;;;;;17.02;2.88;;;8.80;99.90;;;;;;5085077;28;20639;-72
2022/11/24 04:54:44;;;;;;;22.00;2.88;;;8.80;99.90;;;;;;5083268;28;20570;-71
2022/11/24 04:57:15;;;;;;;24.17;4.15;;;8.90;99.90;;;;;;5088348;28;20031;-71
2022/11/24 04:59:41;;;;;;;20.15;2.83;;;8.90;99.90;;;;;;5087346;28;20036;-71
2022/11/24 05:02:07;;;;;;;20.60;3.15;;;8.90;99.90;;;;;;5075109;28;20036;-72
2022/11/24 05:04:33;;;;;;;23.92;3.42;;;8.90;99.90;;;;;;5086710;28;20547;-73
2022/11/24 05:06:59;;;;;;;24.45;3.42;;;8.90;99.90;;;;;;5087015;28;20036;-72
2022/11/24 05:09:24;;;;;;;17.58;2.72;;;8.90;99.90;;;;;;5082001;28;20397;-71
2022/11/24 05:11:50;;;;;;;22.95;3.08;;;8.90;99.90;;;;;;5086225;28;20028;-72
2022/11/24 05:14:15;;;;;;;18.17;2.72;;;8.80;99.90;;;;;;5086187;28;20070;-71
2022/11/24 05:16:41;;;;;;;24.23;3.30;;;8.70;99.90;;;;;;5082381;28;20452;-72
2022/11/24 05:19:07;;;;;;;22.75;2.88;;;8.50;99.90;;;;;;5081664;28;20047;-72
2022/11/24 05:21:32;;;;;;;18.20;3.58;;;8.50;99.90;;;;;;5077567;28;20042;-70
2022/11/24 05:23:58;;;;;;;22.95;2.80;;;8.40;99.90;;;;;;5077992;28;20040;-72
2022/11/24 05:26:25;;;;;;;24.92;3.63;;;8.40;99.90;;;;;;5082318;28;20036;-70
2022/11/24 05:28:51;;;;;;;25.75;3.47;;;8.50;99.90;;;;;;5073725;28;20032;-71
2022/11/24 05:31:16;;;;;;;27.48;3.55;;;8.50;99.90;;;;;;5084999;28;20663;-72
2022/11/24 05:33:42;;;;;;;24.00;3.63;;;8.50;99.90;;;;;;5070248;28;20060;-72
2022/11/24 05:36:51;;;;;;;22.30;3.10;;;8.60;99.90;;;;;;5066672;28;20040;-72
2022/11/24 05:38:54;;;;;;;21.38;3.35;;;8.60;99.90;;;;;;5070729;28;20093;-72
2022/11/24 05:41:19;;;;;;;20.17;2.95;;;8.60;99.90;;;;;;5083488;28;20044;-73
2022/11/24 05:43:45;;;;;;;19.10;3.40;;;8.60;99.90;;;;;;5080032;28;20401;-73
2022/11/24 05:46:11;;;;;;;23.15;3.60;;;8.70;99.90;;;;;;5085973;28;20098;-73
2022/11/24 05:48:36;;;;;;;20.15;2.88;;;8.70;99.90;;;;;;5085942;28;20020;-72
2022/11/24 05:51:02;;;;;;;23.45;3.35;;;8.70;99.90;;;;;;5085815;28;20126;-72
2022/11/24 05:53:27;;;;;;;18.52;2.97;;;8.60;99.90;;;;;;5087425;28;20039;-72
2022/11/24 05:55:53;;;;;;;22.00;3.55;;;8.60;99.90;;;;;;5088586;28;20619;-73
2022/11/24 05:58:19;;;;;;;22.40;2.88;;;8.60;99.90;;;;;;5085641;28;20035;-73
2022/11/24 06:00:44;;;;;;;17.17;3.00;;;8.60;99.90;;;;;;5071789;28;20411;-71
2022/11/24 06:03:11;;;;;;;18.05;2.33;;;8.60;99.90;;;;;;5087230;28;20775;-73
2022/11/24 06:05:37;;;;;;;18.40;3.00;;;8.70;99.90;;;;;;5087067;28;20085;-73
2022/11/24 06:08:03;;;;;;;20.02;3.00;;;8.70;99.90;;;;;;5079453;28;20425;-72
2022/11/24 06:10:28;;;;;;;18.98;2.78;;;8.80;99.90;;;;;;5081730;28;20038;-71
2022/11/24 06:12:54;;;;;;;21.33;2.55;;;8.90;99.90;;;;;;5084693;28;20820;-71
2022/11/24 06:15:19;;;;;;;18.08;2.95;;;8.90;99.90;;;;;;5081150;28;20540;-73
2022/11/24 06:17:55;;;;;;;23.23;3.28;;;8.90;99.90;;;;;;5072530;28;20054;-73
2022/11/24 06:20:21;;;;;;;15.73;2.63;;;8.80;99.90;;;;;;5083740;28;20078;-72
2022/11/24 06:22:47;;;;;;;22.10;2.85;;;8.70;99.90;;;;;;5074935;28;20118;-73
2022/11/24 06:25:13;;;;;;;25.52;2.92;;;8.70;99.90;;;;;;5082133;28;20100;-71
2022/11/24 06:27:38;;;;;;;20.00;3.58;;;8.60;99.90;;;;;;5068109;28;20062;-72
2022/11/24 06:30:05;;;;;;;20.65;2.75;;;8.60;99.90;;;;;;5066026;28;20064;-72
2022/11/24 06:32:30;;;;;;;24.38;3.83;;;8.60;99.90;;;;;;5072151;28;20540;-72
2022/11/24 06:34:56;;;;;;;34.58;3.40;;;8.60;99.90;;;;;;5067220;28;20037;-72
2022/11/24 06:37:22;;;;;;;18.65;2.58;;;8.50;99.90;;;;;;5079259;28;20040;-73
2022/11/24 06:39:48;;;;;;;27.23;4.53;;;8.50;99.90;;;;;;5075081;28;20032;-72
2022/11/24 06:42:17;;;;;;;27.15;5.70;;;8.40;99.90;;;;;;5083720;28;20024;-71
2022/11/24 06:44:46;;;;;;;38.10;5.18;;;8.30;99.90;;;;;;5086214;28;20069;-72
2022/11/24 06:47:13;;;;;;;23.27;4.28;;;8.20;99.90;;;;;;5085049;28;20038;-72
2022/11/24 06:49:38;;;;;;;24.00;4.20;;;8.20;99.90;;;;;;5079854;28;20838;-71
2022/11/24 06:52:04;;;;;;;23.83;3.58;;;8.10;99.90;;;;;;5083179;28;20035;-72
2022/11/24 06:54:30;;;;;;;24.52;3.38;;;8.10;99.90;;;;;;5084132;28;20028;-71
2022/11/24 06:56:56;;;;;;;23.73;4.25;;;8.10;99.90;;;;;;5083077;28;20069;-71
2022/11/24 06:59:22;;;;;;;30.77;5.68;;;8.10;99.90;;;;;;5073470;28;20032;-71
2022/11/24 07:01:48;;;;;;;29.23;6.55;;;8.10;99.90;;;;;;5065040;28;20496;-71
2022/11/24 07:04:14;;;;;;;33.75;8.13;;;8.10;99.90;;;;;;5073900;28;20134;-71
2022/11/24 07:06:40;;;;;;;56.75;16.00;;;8.10;99.90;;;;;;5075244;28;20063;-71
2022/11/24 07:09:08;;;;;;;70.97;22.52;;;8.10;99.90;;;;;;5071246;28;20020;-72
2022/11/24 07:11:34;;;;;;;50.42;15.98;;;8.10;99.90;;;;;;5070610;28;20047;-72
2022/11/24 07:13:59;;;;;;;46.10;14.00;;;8.20;99.90;;;;;;5071781;28;20121;-72
2022/11/24 07:16:26;;;;;;;41.97;8.80;;;8.20;99.90;;;;;;5076083;28;20020;-71
2022/11/24 07:18:53;;;;;;;28.33;6.60;;;8.30;99.90;;;;;;5067116;28;20441;-70
2022/11/24 07:21:20;;;;;;;32.65;6.68;;;8.30;99.90;;;;;;5067430;28;20036;-72
2022/11/24 07:23:50;;;;;;;29.27;6.68;;;8.40;99.90;;;;;;5076718;28;20059;-72
2022/11/24 07:26:16;;;;;;;31.65;4.93;;;8.50;99.90;;;;;;5077914;28;20032;-73
2022/11/24 07:28:42;;;;;;;25.23;4.00;;;8.60;99.90;;;;;;5079612;28;20031;-73
2022/11/24 07:31:17;;;;;;;28.85;4.32;;;8.60;99.90;;;;;;5074650;28;20032;-73
2022/11/24 07:33:47;;;;;;;32.53;4.00;;;8.70;99.90;;;;;;5079882;28;20035;-72
2022/11/24 07:36:13;;;;;;;;;;;8.80;99.90;;;;;;5084523;28;20024;-72
2022/11/24 07:38:38;;;;;;;22.20;2.70;;;8.80;99.90;;;;;;5084300;28;19918;-72
2022/11/24 07:41:06;;;;;;;29.70;4.15;;;8.90;99.90;;;;;;5075856;28;20428;-72
2022/11/24 07:43:33;;;;;;;27.92;3.75;;;9.00;99.90;;;;;;5085408;28;20035;-72
2022/11/24 07:45:59;;;;;;;28.42;4.10;;;9.10;99.90;;;;;;5071666;28;20044;-72
2022/11/24 07:48:25;;;;;;;25.23;3.95;;;9.20;99.90;;;;;;5077780;28;20028;-69
2022/11/24 07:50:51;;;;;;;31.98;4.03;;;9.20;99.90;;;;;;5082343;28;20044;-70
2022/11/24 07:53:16;;;;;;;29.88;4.45;;;9.30;99.90;;;;;;5080609;28;20478;-71
2022/11/24 07:55:42;;;;;;;30.05;3.50;;;9.30;99.90;;;;;;5075618;28;20052;-71
2022/11/24 07:58:08;;;;;;;31.90;3.72;;;9.50;99.90;;;;;;5082570;28;20085;-71
2022/11/24 08:00:34;;;;;;;33.40;3.97;;;9.60;99.90;;;;;;5076630;28;20031;-72
2022/11/24 08:02:59;;;;;;;24.77;3.45;;;9.80;99.90;;;;;;5085819;28;20541;-71
2022/11/24 08:05:25;;;;;;;23.33;3.80;;;9.80;99.90;;;;;;5084732;28;20039;-71
2022/11/24 08:07:50;;;;;;;38.25;5.68;;;10.00;99.90;;;;;;5085684;28;20028;-69
2022/11/24 08:10:16;;;;;;;29.60;4.32;;;10.00;99.90;;;;;;5080164;28;20067;-71
2022/11/24 08:12:42;;;;;;;29.15;4.93;;;10.10;99.90;;;;;;5070165;28;20115;-71
2022/11/24 08:15:08;;;;;;;29.55;4.68;;;10.30;99.90;;;;;;5072632;28;20028;-71
2022/11/24 08:17:34;;;;;;;23.10;4.25;;;10.50;99.90;;;;;;5072355;28;20034;-71
2022/11/24 08:20:00;;;;;;;28.00;4.28;;;10.90;99.90;;;;;;5072161;28;20037;-72
2022/11/24 08:22:25;;;;;;;27.38;4.20;;;11.10;99.90;;;;;;5081950;28;20063;-72
2022/11/24 08:24:51;;;;;;;24.55;3.95;;;11.30;99.90;;;;;;5080853;28;20103;-72
2022/11/24 08:27:17;;;;;;;39.38;4.88;;;11.50;99.90;;;;;;5074922;28;20032;-72
2022/11/24 08:29:43;;;;;;;29.77;4.85;;;11.60;99.90;;;;;;5076044;28;20044;-72
2022/11/24 08:32:10;;;;;;;29.35;4.43;;;11.60;99.90;;;;;;5070596;28;20036;-72
2022/11/24 08:34:36;;;;;;;26.67;4.32;;;11.80;99.90;;;;;;5078648;28;20080;-72
2022/11/24 08:37:05;;;;;;;31.75;5.13;;;11.90;99.90;;;;;;5074514;28;20036;-71
2022/11/24 08:39:31;;;;;;;30.92;5.28;;;12.20;99.90;;;;;;5074181;28;20041;-72
2022/11/24 08:41:56;;;;;;;26.85;4.10;;;12.30;99.90;;;;;;5069476;28;20040;-73
2022/11/24 08:44:22;;;;;;;28.02;4.28;;;12.40;99.90;;;;;;5078400;28;20167;-72
2022/11/24 08:46:48;;;;;;;35.53;4.88;;;12.40;99.90;;;;;;5073907;28;20032;-73
2022/11/24 08:49:15;;;;;;;28.33;4.20;;;12.40;99.90;;;;;;5081434;28;20031;-73
2022/11/24 08:51:40;;;;;;;31.67;4.50;;;12.50;99.90;;;;;;5084218;28;20044;-73
2022/11/24 08:54:09;;;;;;;25.90;4.32;;;12.50;99.90;;;;;;5086909;28;20029;-72
2022/11/24 08:56:35;;;;;;;27.98;4.55;;;12.60;99.90;;;;;;5087350;28;20031;-72
2022/11/24 08:59:01;;;;;;;24.02;3.80;;;12.70;99.90;;;;;;5078477;28;20094;-71
2022/11/24 09:01:27;;;;;;;25.75;4.68;;;12.80;99.90;;;;;;5074059;28;20388;-72
2022/11/24 09:03:53;;;;;;;35.95;5.57;;;12.90;99.90;;;;;;5092548;28;20039;-72
2022/11/24 09:06:22;;;;;;;32.63;4.78;;;12.90;99.90;;;;;;5077293;28;20028;-71
2022/11/24 09:08:48;;;;;;;35.78;5.18;;;13.10;99.90;;;;;;5087016;28;20032;-71
2022/11/24 09:11:15;;;;;;;37.17;5.32;;;13.20;99.90;;;;;;5087406;28;20032;-72
2022/11/24 09:13:41;;;;;;;32.13;5.15;;;13.30;99.90;;;;;;5085438;28;20028;-73
2022/11/24 09:16:12;;;;;;;34.55;5.70;;;13.30;99.90;;;;;;5087514;28;20039;-73
2022/11/24 09:18:38;;;;;;;36.85;5.68;;;13.30;99.90;;;;;;5086532;28;20039;-72
2022/11/24 09:21:13;;;;;;;25.17;4.72;;;13.20;99.90;;;;;;5074719;28;20040;-72
2022/11/24 09:23:39;;;;;;;27.30;4.90;;;13.30;99.90;;;;;;5071946;28;20070;-72
2022/11/24 09:26:07;;;;;;;25.17;4.57;;;13.30;99.90;;;;;;5078325;28;20058;-73
2022/11/24 09:28:33;;;;;;;28.73;4.88;;;13.50;99.90;;;;;;5074253;28;20043;-72
2022/11/24 09:31:03;;;;;;;30.13;4.18;;;13.60;99.90;;;;;;5074211;28;20037;-72
2022/11/24 09:33:30;;;;;;;29.25;5.63;;;13.70;99.90;;;;;;5077681;28;20513;-72
2022/11/24 09:35:56;;;;;;;31.05;4.25;;;13.60;99.90;;;;;;5073880;28;20494;-73
2022/11/24 09:38:22;;;;;;;31.80;5.18;;;13.40;99.90;;;;;;5073684;28;20110;-72
2022/11/24 09:40:48;;;;;;;28.45;4.85;;;13.30;99.90;;;;;;5067193;28;20036;-72
2022/11/24 09:43:26;;;;;;;31.40;5.10;;;13.10;99.90;;;;;;5073184;28;20036;-71
2022/11/24 09:46:30;;;;;;;32.63;5.00;;;13.00;99.90;;;;;;5073172;28;20025;-72
2022/11/24 09:48:57;;;;;;;30.55;5.13;;;13.00;99.90;;;;;;5041559;28;20032;-72
2022/11/24 09:51:27;;;;;;;33.50;5.95;;;13.00;99.90;;;;;;5069163;28;20044;-72
2022/11/24 09:54:10;;;;;;;27.50;5.80;;;13.10;99.90;;;;;;5072068;28;20105;-71
2022/11/24 09:56:39;;;;;;;29.90;5.35;;;13.10;99.90;;;;;;5074588;28;20095;-72
2022/11/24 09:59:15;;;;;;;34.97;5.93;;;13.20;99.90;;;;;;5069694;28;20032;-71
2022/11/24 10:01:42;;;;;;;33.30;4.68;;;13.20;99.90;;;;;;5069298;28;20281;-71
2022/11/24 10:04:45;;;;;;;35.25;4.68;;;13.30;99.90;;;;;;5070271;28;20042;-72
2022/11/24 10:07:29;;;;;;;35.35;5.45;;;13.30;99.90;;;;;;4997250;28;20041;-71
2022/11/24 10:10:23;;;;;;;24.10;4.32;;;13.30;99.90;;;;;;5058792;28;20049;-71
2022/11/24 10:13:22;;;;;;;32.35;4.85;;;13.40;99.90;;;;;;5065376;28;20538;-71
2022/11/24 10:15:59;;;;;;;30.60;5.05;;;13.40;99.90;;;;;;5075658;28;20134;-72
2022/11/24 10:18:33;;;;;;;37.35;5.10;;;13.50;99.90;;;;;;5076919;28;20031;-72
2022/11/24 10:21:33;;;;;;;38.90;5.78;;;13.60;99.90;;;;;;5072450;28;20043;-72
2022/11/24 10:24:01;;;;;;;;;;;14.00;99.90;;;;;;5068125;28;20089;-71
2022/11/24 10:26:49;;;;;;;32.75;4.18;;;14.30;99.90;;;;;;5070413;28;19912;-71
2022/11/24 10:29:22;;;;;;;27.08;4.03;;;14.80;99.90;;;;;;5075488;28;20489;-71
2022/11/24 10:31:52;;;;;;;32.22;4.97;;;14.90;99.90;;;;;;5071648;28;20402;-71
2022/11/24 10:34:21;;;;;;;;;;;14.90;99.90;;;;;;5081274;28;20024;-71
2022/11/24 10:36:53;;;;;;;29.63;5.32;;;14.70;99.90;;;;;;5068583;28;20365;-71
2022/11/24 10:39:52;;;;;;;30.50;4.13;;;14.50;99.90;;;;;;5070072;28;20428;-72
2022/11/24 10:42:30;;;;;;;23.05;3.55;;;14.40;99.90;;;;;;5068318;28;20037;-72
2022/11/24 10:45:10;;;;;;;37.10;4.90;;;14.20;99.90;;;;;;5070198;28;20105;-71
2022/11/24 10:47:36;;;;;;;24.55;4.10;;;14.00;99.90;;;;;;5074104;28;20056;-71
2022/11/24 10:50:25;;;;;;;29.55;4.13;;;13.80;99.90;;;;;;5064375;28;20091;-71
2022/11/24 10:53:05;;;;;;;32.38;4.85;;;13.70;99.90;;;;;;5069491;28;20404;-71
2022/11/24 10:55:53;;;;;;;29.65;4.38;;;13.70;99.90;;;;;;5076956;28;20032;-71
2022/11/24 10:58:25;;;;;;;23.45;3.75;;;13.90;99.90;;;;;;5066741;28;20089;-73
2022/11/24 11:00:52;;;;;;;33.80;4.75;;;14.10;99.90;;;;;;5069982;28;20032;-71
2022/11/24 11:03:31;;;;;;;24.40;4.10;;;14.10;99.90;;;;;;5069266;28;20028;-72
2022/11/24 11:06:12;;;;;;;26.13;3.67;;;14.10;99.90;;;;;;5065918;28;20029;-72
2022/11/24 11:08:38;;;;;;;24.13;3.95;;;14.00;99.90;;;;;;5067856;28;20056;-71
2022/11/24 11:11:29;;;;;;;22.15;3.83;;;14.30;99.90;;;;;;5072094;28;20121;-71
2022/11/24 11:14:00;;;;;;;23.45;3.72;;;14.70;99.90;;;;;;5074764;28;20047;-71
2022/11/24 11:16:32;;;;;;;31.88;5.28;;;14.90;99.90;;;;;;5075730;28;20024;-72
2022/11/24 11:19:00;;;;;;;27.67;3.97;;;15.00;99.90;;;;;;5080532;28;20534;-73
2022/11/24 11:21:38;;;;;;;26.45;3.97;;;15.10;99.90;;;;;;5078030;28;20466;-71
2022/11/24 11:24:15;;;;;;;25.75;3.55;;;15.00;99.90;;;;;;5076960;28;20036;-71
2022/11/24 11:26:42;;;;;;;26.38;4.45;;;15.20;99.90;;;;;;5074413;28;20031;-72
2022/11/24 11:29:07;;;;;;;26.50;4.20;;;15.30;99.90;;;;;;5078004;28;20128;-72
2022/11/24 11:31:37;;;;;;;27.50;3.53;;;15.00;99.90;;;;;;5078071;28;20179;-71
2022/11/24 11:34:09;;;;;;;29.77;4.25;;;14.90;99.90;;;;;;5068782;28;20040;-71
2022/11/24 11:36:44;;;;;;;25.85;4.25;;;14.80;99.90;;;;;;5072204;28;20024;-71
2022/11/24 11:39:29;;;;;;;23.55;3.90;;;14.60;99.90;;;;;;5069084;28;20024;-72
2022/11/24 11:42:34;;;;;;;26.73;4.32;;;14.40;99.90;;;;;;5088814;28;20040;-72
2022/11/24 11:45:09;;;;;;;21.92;3.90;;;14.10;99.90;;;;;;5080755;28;20073;-72
2022/11/24 11:47:40;;;;;;;24.88;4.40;;;14.00;99.90;;;;;;5088604;28;20030;-71
2022/11/24 11:50:19;;;;;;;26.60;3.60;;;13.80;99.90;;;;;;5088709;28;20024;-73
2022/11/24 11:52:59;;;;;;;31.27;4.22;;;13.80;99.90;;;;;;5088584;28;20023;-72
2022/11/24 11:55:39;;;;;;;23.38;3.60;;;13.80;99.90;;;;;;5087094;28;20085;-72
2022/11/24 11:58:31;;;;;;;21.52;3.78;;;13.80;99.90;;;;;;5087110;28;20036;-72
2022/11/24 12:01:05;;;;;;;24.33;4.72;;;13.80;99.90;;;;;;5087870;28;20040;-72
2022/11/24 12:04:00;;;;;;;26.23;4.88;;;13.80;99.90;;;;;;5089371;28;20035;-71
2022/11/24 12:06:45;;;;;;;23.30;3.33;;;13.80;99.90;;;;;;5069059;28;20032;-72
2022/11/24 12:09:31;;;;;;;25.40;3.20;;;13.80;99.90;;;;;;5069186;28;20036;-71
2022/11/24 12:12:34;;;;;;;27.00;4.38;;;14.00;99.90;;;;;;5068620;28;20040;-70
2022/11/24 12:15:09;;;;;;;28.17;3.95;;;14.10;99.90;;;;;;5066917;28;20028;-70
2022/11/24 12:17:56;;;;;;;31.35;4.60;;;14.20;99.90;;;;;;5082899;28;20047;-70
2022/11/24 12:20:49;;;;;;;26.92;4.22;;;14.10;99.90;;;;;;5088027;28;20118;-70
2022/11/24 12:23:27;;;;;;;28.67;4.10;;;13.90;99.90;;;;;;5088405;28;20023;-70
2022/11/24 12:26:00;;;;;;;28.25;4.40;;;13.70;99.90;;;;;;5081169;28;24563;-71
2022/11/24 12:28:41;;;;;;;24.90;3.60;;;13.50;99.90;;;;;;5084229;28;20059;-72
2022/11/24 12:31:23;;;;;;;24.33;3.30;;;13.40;99.90;;;;;;5076546;28;20491;-72
2022/11/24 12:34:16;;;;;;;23.58;3.78;;;13.30;99.90;;;;;;5088512;28;20032;-72
2022/11/24 12:36:51;;;;;;;30.40;4.50;;;13.40;99.90;;;;;;5087899;28;20090;-72
2022/11/24 12:39:22;;;;;;;28.38;4.20;;;13.40;99.90;;;;;;5084641;28;20051;-71
2022/11/24 12:42:09;;;;;;;27.02;4.70;;;13.40;99.90;;;;;;5067333;28;20143;-71
2022/11/24 12:44:57;;;;;;;22.92;3.67;;;13.60;99.90;;;;;;5088896;28;20031;-72
2022/11/24 12:47:51;;;;;;;23.77;4.15;;;13.80;99.90;;;;;;5082859;28;20035;-71
2022/11/24 12:50:19;;;;;;;24.50;3.85;;;14.00;99.90;;;;;;5088459;28;20047;-72
2022/11/24 12:53:12;;;;;;;23.50;3.63;;;14.20;99.90;;;;;;5075972;28;20029;-70
2022/11/24 12:55:39;;;;;;;24.48;3.92;;;14.20;99.90;;;;;;5064933;28;20481;-71
2022/11/24 12:58:20;;;;;;;30.95;4.15;;;14.20;99.90;;;;;;5069426;28;20067;-72
2022/11/24 13:00:51;;;;;;;21.20;3.65;;;14.10;99.90;;;;;;5071264;28;20024;-71